Time;durP1;ratioP1;P1;durP2;ratioP2;P2;SDS_P1;SDS_P2;PMS_P1;PMS_P2;Temp;Humidity;BMP_temperature;BMP_pressure;BME280_temperature;BME280_humidity;BME280_pressure;Samples;Min_cycle;Max_cycle;Signal;HPM_P1;HPM_P2
2023/10/13 00:01:23;;;;;;;;;;;;;;;20.24;36.13;100900.04;105439;1302;82198;-89
2023/10/13 00:03:52;;;;;;;;;;;;;;;20.24;35.88;100900.45;105464;1299;67218;-89
2023/10/13 00:06:18;;;;;;;;;;;;;;;20.24;35.98;100903.82;105468;1297;66438;-90
2023/10/13 00:11:22;;;;;;;;;;;;;;;20.24;35.87;100894.77;105502;1299;74665;-89
2023/10/13 00:13:52;;;;;;;;;;;;;;;20.23;36.06;100891.65;105607;1294;82163;-89
2023/10/13 00:16:21;;;;;;;;;;;;;;;20.24;35.87;100889.30;105539;1295;74341;-89
2023/10/13 00:18:48;;;;;;;;;;;;;;;20.23;36.04;100887.00;105610;1297;67705;-89
2023/10/13 00:21:13;;;;;;;;;;;;;;;20.23;36.13;100888.38;105604;1299;67241;-89
2023/10/13 00:26:09;;;;;;;;;;;;;;;20.23;36.16;100892.83;105564;1299;80964;-89
2023/10/13 00:28:46;;;;;;;;;;;;;;;20.22;36.08;100895.17;105459;1300;72459;-89
2023/10/13 00:31:12;;;;;;;;;;;;;;;20.22;36.09;100897.56;105483;1298;68402;-89
2023/10/13 00:33:38;;;;;;;;;;;;;;;20.22;36.04;100900.33;105532;1297;67004;-89
2023/10/13 00:36:05;;;;;;;;;;;;;;;20.22;35.98;100896.55;105597;1294;67456;-90
2023/10/13 00:38:30;;;;;;;;;;;;;;;20.22;36.02;100894.80;105544;1300;67199;-90
2023/10/13 00:41:17;;;;;;;;;;;;;;;20.22;36.10;100890.63;105537;1300;70214;-90
2023/10/13 00:44:04;;;;;;;;;;;;;;;20.22;36.19;100888.92;105511;1299;67595;-90
2023/10/13 00:46:33;;;;;;;;;;;;;;;20.21;36.06;100878.61;105536;1298;67139;-90
2023/10/13 00:48:57;;;;;;;;;;;;;;;20.21;35.95;100876.21;105580;1292;73200;-89
2023/10/13 00:51:32;;;;;;;;;;;;;;;20.21;36.01;100876.16;105492;1298;68239;-90
2023/10/13 00:53:59;;;;;;;;;;;;;;;20.21;36.01;100878.46;105511;1294;72436;-90
2023/10/13 00:56:40;;;;;;;;;;;;;;;;;;;;;
2023/10/13 00:59:02;;;;;;;;;;;;;;;20.21;36.03;100872.38;105431;1297;67013;-89
2023/10/13 01:01:34;;;;;;;;;;;;;;;20.21;36.04;100867.32;105467;1299;74545;-90
2023/10/13 01:04:00;;;;;;;;;;;;;;;20.21;36.31;100869.67;105543;1299;82250;-90
2023/10/13 01:06:28;;;;;;;;;;;;;;;20.21;36.17;100866.45;105584;1297;66980;-90
2023/10/13 01:08:58;;;;;;;;;;;;;;;20.21;36.07;100860.83;105562;1296;67198;-87
2023/10/13 01:11:29;;;;;;;;;;;;;;;20.20;36.13;100858.94;105542;1299;66266;-89
2023/10/13 01:14:17;;;;;;;;;;;;;;;20.20;36.17;100867.77;83129;1325;73208;-90
2023/10/13 01:16:45;;;;;;;;;;;;;;;20.20;36.05;100865.94;105557;1298;82262;-90
2023/10/13 01:19:17;;;;;;;;;;;;;;;20.20;36.00;100862.15;105489;1301;73817;-90
2023/10/13 01:21:44;;;;;;;;;;;;;;;20.20;36.24;100870.13;105596;1299;66268;-90
2023/10/13 01:24:13;;;;;;;;;;;;;;;20.19;36.19;100876.25;105596;1300;66939;-90
2023/10/13 01:26:39;;;;;;;;;;;;;;;20.19;36.06;100872.88;105590;1300;74489;-89
2023/10/13 01:29:14;;;;;;;;;;;;;;;20.19;36.14;100871.60;105573;1300;66335;-89
2023/10/13 01:31:45;;;;;;;;;;;;;;;20.19;36.11;100868.33;105534;1300;72315;-90
2023/10/13 01:34:19;;;;;;;;;;;;;;;20.19;36.21;100871.69;105485;1300;66365;-90
2023/10/13 01:36:51;;;;;;;;;;;;;;;20.19;36.11;100867.54;105379;1301;66358;-89
2023/10/13 01:39:21;;;;;;;;;;;;;;;20.19;36.23;100866.42;105447;1300;67325;-89
2023/10/13 01:41:46;;;;;;;;;;;;;;;20.18;36.23;100869.34;105468;1300;82251;-89
2023/10/13 01:44:12;;;;;;;;;;;;;;;20.18;36.18;100868.87;105343;1300;66284;-90
2023/10/13 01:46:42;;;;;;;;;;;;;;;20.18;36.13;100869.02;105413;1302;67805;-89
2023/10/13 01:49:07;;;;;;;;;;;;;;;20.17;36.11;100862.89;105392;1302;66983;-89
2023/10/13 01:51:33;;;;;;;;;;;;;;;20.18;36.25;100858.95;105375;1302;67010;-90
2023/10/13 01:54:02;;;;;;;;;;;;;;;20.17;36.26;100862.17;105399;1302;68115;-90
2023/10/13 01:56:30;;;;;;;;;;;;;;;20.17;36.14;100864.20;105392;1302;72392;-89
2023/10/13 01:58:55;;;;;;;;;;;;;;;20.16;36.17;100866.41;105359;1302;66643;-89
2023/10/13 02:01:27;;;;;;;;;;;;;;;20.16;36.11;100870.34;105338;1302;66814;-89
2023/10/13 02:04:02;;;;;;;;;;;;;;;20.16;36.29;100871.66;105420;1302;75179;-89
2023/10/13 02:06:34;;;;;;;;;;;;;;;20.16;36.05;100876.67;105536;1300;82976;-89
2023/10/13 02:11:58;;;;;;;;;;;;;;;20.16;36.21;100872.79;105424;1299;67296;-89
2023/10/13 02:14:25;;;;;;;;;;;;;;;20.15;36.28;100870.33;105550;1297;67119;-90
2023/10/13 02:16:55;;;;;;;;;;;;;;;20.15;36.18;100875.95;105600;1299;67713;-89
2023/10/13 02:19:20;;;;;;;;;;;;;;;20.15;36.26;100880.95;105649;1299;82174;-89
2023/10/13 02:21:58;;;;;;;;;;;;;;;20.15;36.32;100882.07;105613;1297;68431;-89
2023/10/13 02:24:29;;;;;;;;;;;;;;;20.13;36.15;100877.71;105730;1297;67192;-89
2023/10/13 02:26:56;;;;;;;;;;;;;;;20.14;36.19;100875.06;105744;1297;67581;-89
2023/10/13 02:29:21;;;;;;;;;;;;;;;20.14;36.41;100874.91;105753;1297;74270;-90
2023/10/13 02:31:54;;;;;;;;;;;;;;;20.13;36.35;100877.41;105579;1300;66987;-89
2023/10/13 02:34:22;;;;;;;;;;;;;;;20.13;36.16;100870.05;105602;1296;72592;-89
2023/10/13 02:36:51;;;;;;;;;;;;;;;20.13;36.03;100870.20;105548;1297;67216;-89
2023/10/13 02:39:17;;;;;;;;;;;;;;;20.13;36.19;100863.72;105562;1300;67077;-89
2023/10/13 02:41:48;;;;;;;;;;;;;;;20.13;36.15;100862.69;105542;1300;66997;-89
2023/10/13 02:44:33;;;;;;;;;;;;;;;20.12;36.15;100865.91;105569;1299;82127;-90
2023/10/13 02:46:59;;;;;;;;;;;;;;;20.12;36.32;100863.60;105508;1299;72572;-89
2023/10/13 02:49:37;;;;;;;;;;;;;;;20.11;36.19;100861.90;105591;1296;67267;-89
2023/10/13 02:52:08;;;;;;;;;;;;;;;20.11;36.34;100867.06;105609;1296;67855;-89
2023/10/13 02:54:42;;;;;;;;;;;;;;;20.10;36.24;100866.65;105533;1300;75756;-89
2023/10/13 02:57:07;;;;;;;;;;;;;;;20.10;36.22;100862.71;105616;1299;80924;-88
2023/10/13 02:59:55;;;;;;;;;;;;;;;20.10;36.31;100866.89;105618;1300;67047;-89
2023/10/13 03:02:29;;;;;;;;;;;;;;;20.09;36.31;100866.19;105613;1299;67413;-88
2023/10/13 03:04:59;;;;;;;;;;;;;;;20.09;36.32;100867.16;105574;1300;68168;-88
2023/10/13 03:07:33;;;;;;;;;;;;;;;20.08;36.17;100865.20;105496;1297;73198;-88
2023/10/13 03:09:59;;;;;;;;;;;;;;;20.09;36.24;100865.41;105446;1301;67664;-89
2023/10/13 03:12:25;;;;;;;;;;;;;;;20.10;36.27;100864.70;105679;1298;66788;-89
2023/10/13 03:15:10;;;;;;;;;;;;;;;20.11;36.27;100862.52;105577;1300;67036;-88
2023/10/13 03:17:36;;;;;;;;;;;;;;;20.12;36.38;100856.91;105701;1299;66982;-88
2023/10/13 03:22:34;;;;;;;;;;;;;;;20.12;36.75;100853.08;105615;1299;80502;-88
2023/10/13 03:25:04;;;;;;;;;;;;;;;20.11;37.04;100854.91;105504;1299;66961;-89
2023/10/13 03:27:41;;;;;;;;;;;;;;;20.10;37.21;100860.36;105592;1301;66903;-89
2023/10/13 03:30:10;;;;;;;;;;;;;;;20.09;37.44;100858.88;105643;1299;66950;-89
2023/10/13 03:32:42;;;;;;;;;;;;;;;20.08;37.44;100853.04;105418;1301;75256;-89
2023/10/13 03:35:13;;;;;;;;;;;;;;;20.07;37.59;100851.34;105627;1299;81971;-89
2023/10/13 03:37:38;;;;;;;;;;;;;;;20.06;37.52;100855.57;105418;1299;73605;-89
2023/10/13 03:40:33;;;;;;;;;;;;;;;20.05;37.52;100854.11;105420;1303;67120;-89
2023/10/13 03:43:05;;;;;;;;;;;;;;;20.03;37.46;100855.73;105579;1299;67643;-89
2023/10/13 03:45:39;;;;;;;;;;;;;;;20.02;37.53;100854.91;105522;1299;74778;-89
2023/10/13 03:51:03;;;;;;;;;;;;;;;20.00;37.68;100849.23;105578;1299;72547;-89
2023/10/13 03:53:34;;;;;;;;;;;;;;;19.99;37.65;100852.73;105558;1300;67057;-89
2023/10/13 03:56:09;;;;;;;;;;;;;;;19.99;37.57;100853.80;105478;1299;66968;-93
2023/10/13 03:58:36;;;;;;;;;;;;;;;19.97;37.50;100850.28;105523;1300;74508;-89
2023/10/13 04:01:03;;;;;;;;;;;;;;;19.97;37.45;100857.23;105555;1299;82146;-88
2023/10/13 04:03:33;;;;;;;;;;;;;;;19.96;37.54;100861.35;105489;1300;72514;-89
2023/10/13 04:06:06;;;;;;;;;;;;;;;19.96;37.34;100858.73;105597;1299;67446;-88
2023/10/13 04:09:51;;;;;;;;;;;;;;;19.95;37.58;100863.54;105561;1299;66529;-87
2023/10/13 04:17:14;;;;;;;;;;;;;;;19.92;37.37;100850.38;105668;1299;71440;-88
2023/10/13 04:23:17;;;;;;;;;;;;;;;19.90;37.38;100858.12;105562;1300;66909;-88
2023/10/13 04:28:14;;;;;;;;;;;;;;;19.88;37.39;100866.48;105641;1299;83724;-87
2023/10/13 04:33:35;;;;;;;;;;;;;;;19.85;37.36;100874.33;105526;1298;67083;-87
2023/10/13 04:39:43;;;;;;;;;;;;;;;19.84;37.25;100873.86;105174;1296;551478;31
2023/10/13 04:48:46;;;;;;;;;;;;;;;19.82;37.14;100865.52;100740;1293;551607;-89
2023/10/13 04:58:00;;;;;;;;;;;;;;;19.81;37.28;100876.44;105413;1296;555388;-89
2023/10/13 06:56:11;;;;;;;;;;;;;;;;;;;;;
2023/10/13 07:02:33;;;;;;;;;;;;;;;19.93;37.47;101009.85;86703;1295;80131;-92
2023/10/13 07:18:05;;;;;;;;;;;;;;;20.03;37.51;101020.28;98942;1298;80489;-89
2023/10/13 07:20:40;;;;;;;;;;;;;;;20.03;37.47;101017.56;105583;1299;73625;-91
2023/10/13 07:53:49;;;;;;;;;;;;;;;20.09;37.76;101013.67;93701;1300;71983;-92
2023/10/13 08:06:36;;;;;;;;;;;;;;;20.12;37.75;101028.88;85958;1295;80140;-90
2023/10/13 08:09:09;;;;;;;;;;;;;;;20.14;37.70;101029.60;105006;1298;551431;-89
2023/10/13 08:36:27;;;;;;;;;;;;;;;20.23;37.76;101037.90;103795;1295;80262;-91
2023/10/13 08:39:57;;;;;;;;;;;;;;;20.24;37.76;101032.07;90042;1297;529356;-90
2023/10/13 08:48:31;;;;;;;;;;;;;;;20.26;37.97;101035.23;105746;1299;74607;-92
2023/10/13 09:19:44;;;;;;;;;;;;;;;20.37;37.84;101059.47;91688;1291;73765;31
2023/10/13 09:29:02;;;;;;;;;;;;;;;20.40;37.91;101059.09;91335;1300;67094;-92
2023/10/13 09:35:18;;;;;;;;;;;;;;;20.41;38.04;101063.16;85464;1303;73472;-91
2023/10/13 09:38:34;;;;;;;;;;;;;;;20.43;38.03;101052.23;105742;1294;82215;-91
2023/10/13 09:44:13;;;;;;;;;;;;;;;20.46;37.92;101051.98;105648;1294;67018;-91
2023/10/13 09:46:45;;;;;;;;;;;;;;;20.47;38.09;101047.16;105634;1300;66940;-88
2023/10/13 09:49:15;;;;;;;;;;;;;;;20.48;38.02;101046.20;105548;1296;66437;-90
2023/10/13 09:52:01;;;;;;;;;;;;;;;20.51;38.14;101044.29;105520;1296;82337;31
2023/10/13 09:57:44;;;;;;;;;;;;;;;20.54;37.99;101043.61;105136;1303;67041;-92
2023/10/13 10:00:27;;;;;;;;;;;;;;;20.55;38.18;101039.95;105072;1307;66888;-86
2023/10/13 10:02:58;;;;;;;;;;;;;;;20.56;38.12;101035.11;105056;1303;74469;-88
2023/10/13 10:05:25;;;;;;;;;;;;;;;20.59;38.04;101032.33;105301;1308;82130;-91
2023/10/13 10:32:14;;;;;;;;;;;;;;;20.66;38.29;101022.83;95677;1297;541441;-92
2023/10/13 10:47:47;;;;;;;;;;;;;;;20.66;38.37;101022.42;99301;1299;73627;-90
2023/10/13 10:50:20;;;;;;;;;;;;;;;20.66;38.21;101021.23;105782;1300;82752;-91
2023/10/13 10:53:09;;;;;;;;;;;;;;;20.66;38.17;101014.39;105531;1300;72507;-91
2023/10/13 10:58:32;;;;;;;;;;;;;;;20.66;38.37;101013.16;105343;1303;67216;-91
2023/10/13 11:03:59;;;;;;;;;;;;;;;20.66;38.30;101012.45;105277;1294;82307;-88
2023/10/13 11:06:26;;;;;;;;;;;;;;;20.67;38.29;101015.32;105503;1299;72351;-92
2023/10/13 11:11:37;;;;;;;;;;;;;;;20.67;38.32;101015.93;105618;1297;66938;-91
2023/10/13 11:14:26;;;;;;;;;;;;;;;20.67;38.38;101011.27;105534;1300;74437;-90
2023/10/13 11:22:46;;;;;;;;;;;;;;;20.68;38.60;101008.69;105439;1301;66541;-91
2023/10/13 11:38:15;;;;;;;;;;;;;;;20.78;38.49;101010.34;90135;1302;67154;-91
2023/10/13 11:44:34;;;;;;;;;;;;;;;20.83;38.68;101012.02;105414;1299;74594;-90
2023/10/13 11:46:55;;;;;;;;;;;;;;;20.86;38.61;101005.04;105499;1299;82598;-89
2023/10/13 11:49:33;;;;;;;;;;;;;;;20.88;38.60;100994.61;105459;1299;66393;-90
2023/10/13 11:54:58;;;;;;;;;;;;;;;20.92;38.55;100991.94;105536;1298;68189;-92
2023/10/13 11:57:33;;;;;;;;;;;;;;;20.92;38.68;100994.09;105661;1291;73418;-88
2023/10/13 12:00:26;;;;;;;;;;;;;;;20.92;38.53;100993.11;105476;1299;82783;-92
2023/10/13 12:06:06;;;;;;;;;;;;;;;20.95;38.52;101000.81;105644;1297;68479;-91
2023/10/13 12:14:52;;;;;;;;;;;;;;;20.94;38.55;101009.63;105540;1298;81428;-90
2023/10/13 12:20:45;;;;;;;;;;;;;;;20.94;38.52;101008.23;84347;1300;66764;-91
2023/10/13 12:23:17;;;;;;;;;;;;;;;20.95;38.47;101000.10;105578;1296;66392;-90
2023/10/13 12:26:06;;;;;;;;;;;;;;;;;;;;;
2023/10/13 12:28:41;;;;;;;;;;;;;;;20.95;38.44;100998.77;105406;1299;82242;-90
2023/10/13 12:31:11;;;;;;;;;;;;;;;20.96;38.35;100999.19;105325;1300;72626;-92
2023/10/13 13:07:52;;;;;;;;;;;;;;;21.08;38.49;100999.23;104974;1291;555452;-89
2023/10/13 13:10:56;;;;;;;;;;;;;;;21.10;38.51;100991.59;104870;1299;552884;-91
2023/10/13 13:22:33;;;;;;;;;;;;;;;21.14;38.64;100985.42;105714;1296;66231;-91
2023/10/13 13:33:44;;;;;;;;;;;;;;;21.20;38.80;100991.02;105675;1291;66213;-90
2023/10/13 13:39:52;;;;;;;;;;;;;;;21.20;38.66;100982.54;105592;1297;74598;-90
2023/10/13 13:45:27;;;;;;;;;;;;;;;21.19;38.65;100990.31;105502;1297;72533;-88
2023/10/13 13:48:07;;;;;;;;;;;;;;;21.20;38.61;100985.55;105612;1291;66370;31
2023/10/13 13:50:38;;;;;;;;;;;;;;;21.22;38.60;100986.48;105351;1298;67113;-89
2023/10/13 13:53:09;;;;;;;;;;;;;;;21.22;38.52;100988.90;105433;1298;74733;-91
2023/10/13 14:07:43;;;;;;;;;;;;;;;21.27;38.35;100989.80;98142;1294;73611;-89
2023/10/13 14:10:16;;;;;;;;;;;;;;;21.27;38.10;100987.27;105514;1299;82308;-88
2023/10/13 14:15:56;;;;;;;;;;;;;;;21.30;38.04;100985.48;93755;1296;543853;-90
2023/10/13 14:18:48;;;;;;;;;;;;;;;21.31;38.02;100985.22;88828;1293;553013;-90
2023/10/13 14:27:46;;;;;;;;;;;;;;;21.33;37.80;100981.34;103296;1297;71406;-89
2023/10/13 14:30:19;;;;;;;;;;;;;;;21.32;37.71;100980.98;105657;1294;67044;-89
2023/10/13 14:42:05;;;;;;;;;;;;;;;21.28;37.85;100981.33;92836;1300;557420;31
2023/10/13 14:45:12;;;;;;;;;;;;;;;21.28;37.95;100984.09;105244;1295;555687;-89
2023/10/13 14:51:19;;;;;;;;;;;;;;;21.27;37.94;100983.20;105670;1291;74558;31
2023/10/13 14:56:37;;;;;;;;;;;;;;;21.24;37.77;100978.23;105614;1299;72675;-90
2023/10/13 14:59:19;;;;;;;;;;;;;;;21.23;37.93;100980.20;105630;1298;66942;-90
2023/10/13 15:01:46;;;;;;;;;;;;;;;21.22;37.89;100981.64;105656;1300;66931;-90
2023/10/13 15:04:36;;;;;;;;;;;;;;;21.22;37.87;100983.83;105754;1299;73860;-90
2023/10/13 15:07:03;;;;;;;;;;;;;;;21.22;37.94;100984.48;105701;1299;82803;-89
2023/10/13 15:09:31;;;;;;;;;;;;;;;21.21;37.93;100984.80;105618;1299;67096;-90
2023/10/13 15:12:05;;;;;;;;;;;;;;;21.20;38.07;100989.86;105543;1300;66986;-90
2023/10/13 15:14:33;;;;;;;;;;;;;;;21.19;38.00;100990.38;105614;1300;66299;-90
2023/10/13 15:17:00;;;;;;;;;;;;;;;21.18;38.11;100987.04;105684;1300;74486;-89
2023/10/13 15:19:25;;;;;;;;;;;;;;;21.18;37.96;100984.43;105620;1299;82072;-90
2023/10/13 15:21:52;;;;;;;;;;;;;;;21.16;38.02;100985.55;105715;1300;67034;-90
2023/10/13 15:24:21;;;;;;;;;;;;;;;21.15;38.01;100981.02;105652;1300;66238;-90
2023/10/13 15:29:37;;;;;;;;;;;;;;;21.13;38.27;100978.25;105791;1299;73226;-90
2023/10/13 15:32:51;;;;;;;;;;;;;;;21.12;38.26;100979.77;105838;1299;81482;-90
2023/10/13 15:38:37;;;;;;;;;;;;;;;21.10;38.07;100983.91;105620;1292;66430;31
2023/10/13 15:44:09;;;;;;;;;;;;;;;21.09;38.10;100991.16;105791;1297;74014;-90
2023/10/13 15:46:59;;;;;;;;;;;;;;;21.07;38.19;100994.73;105603;1300;84910;-89
2023/10/13 15:49:42;;;;;;;;;;;;;;;21.06;38.21;100995.17;105721;1299;72720;-89
2023/10/13 15:52:15;;;;;;;;;;;;;;;21.05;38.22;101002.45;105676;1296;66890;-89
2023/10/13 15:54:41;;;;;;;;;;;;;;;21.03;38.25;101004.16;105607;1298;66989;-89
2023/10/13 15:57:16;;;;;;;;;;;;;;;21.02;38.14;101007.59;105708;1292;66409;-90
2023/10/13 16:00:22;;;;;;;;;;;;;;;21.01;38.22;101009.10;105750;1294;81748;-89
2023/10/13 16:02:59;;;;;;;;;;;;;;;21.00;38.31;101009.41;105824;1304;70295;-88
2023/10/13 16:05:37;;;;;;;;;;;;;;;20.99;38.37;101007.23;105596;1294;67088;31
2023/10/13 16:10:51;;;;;;;;;;;;;;;20.96;38.22;101019.09;105678;1297;73042;-89
2023/10/13 16:13:35;;;;;;;;;;;;;;;20.94;38.40;101023.69;105578;1297;82323;-89
2023/10/13 16:16:17;;;;;;;;;;;;;;;20.93;38.29;101024.08;105476;1296;72500;-89
2023/10/13 16:18:44;;;;;;;;;;;;;;;20.92;38.33;101022.80;105486;1296;67325;-89
2023/10/13 16:21:12;;;;;;;;;;;;;;;20.91;38.48;101026.73;105576;1294;67153;-89
2023/10/13 16:23:40;;;;;;;;;;;;;;;20.90;38.52;101029.52;105544;1294;74509;-89
2023/10/13 16:26:07;;;;;;;;;;;;;;;20.88;38.47;101035.70;105566;1299;82474;-89
2023/10/13 16:31:52;;;;;;;;;;;;;;;20.85;38.51;101036.29;105499;1300;67189;-89
2023/10/13 16:34:19;;;;;;;;;;;;;;;20.84;38.58;101033.52;105620;1296;67073;-89
2023/10/13 16:36:44;;;;;;;;;;;;;;;20.84;38.43;101036.69;105521;1300;66884;-89
2023/10/13 16:39:11;;;;;;;;;;;;;;;20.83;38.56;101037.95;105577;1298;66446;-88
2023/10/13 16:41:36;;;;;;;;;;;;;;;20.82;38.48;101043.73;105745;1300;66988;-89
2023/10/13 16:44:09;;;;;;;;;;;;;;;20.81;38.56;101046.89;105565;1298;67062;-89
2023/10/13 16:46:39;;;;;;;;;;;;;;;20.80;38.70;101049.85;105503;1299;67568;-88
2023/10/13 16:49:06;;;;;;;;;;;;;;;20.79;38.63;101051.69;105616;1299;66516;-88
2023/10/13 16:51:32;;;;;;;;;;;;;;;20.78;38.47;101048.39;105628;1298;82222;-89
2023/10/13 16:53:58;;;;;;;;;;;;;;;20.77;38.76;101044.75;105575;1296;67055;-88
2023/10/13 16:56:24;;;;;;;;;;;;;;;20.77;38.67;101044.18;105440;1293;67118;-88
2023/10/13 16:58:54;;;;;;;;;;;;;;;20.75;38.82;101041.78;105545;1300;67094;-89
2023/10/13 17:01:19;;;;;;;;;;;;;;;20.75;38.74;101041.23;105626;1300;74561;-88
2023/10/13 17:03:45;;;;;;;;;;;;;;;20.74;38.78;101038.30;105660;1299;67601;-88
2023/10/13 17:06:10;;;;;;;;;;;;;;;20.73;38.61;101032.50;105609;1299;67401;-89
2023/10/13 17:08:36;;;;;;;;;;;;;;;20.71;38.83;101034.84;105600;1296;67176;-89
2023/10/13 17:11:11;;;;;;;;;;;;;;;20.71;38.79;101038.06;105587;1299;66978;-88
2023/10/13 17:13:38;;;;;;;;;;;;;;;20.71;38.83;101042.15;105483;1298;82258;-89
2023/10/13 17:16:13;;;;;;;;;;;;;;;20.72;38.86;101039.55;105514;1300;66847;-88
2023/10/13 17:18:39;;;;;;;;;;;;;;;20.73;38.97;101041.45;105518;1300;67068;-88
2023/10/13 17:21:09;;;;;;;;;;;;;;;20.73;38.95;101040.84;105521;1298;66968;-89
2023/10/13 17:23:35;;;;;;;;;;;;;;;20.74;39.06;101038.15;105431;1300;74382;-89
2023/10/13 17:28:31;;;;;;;;;;;;;;;20.75;38.98;101038.10;105460;1300;71695;-88
2023/10/13 17:31:00;;;;;;;;;;;;;;;20.76;38.93;101041.03;105484;1300;67060;-88
2023/10/13 17:33:25;;;;;;;;;;;;;;;20.76;39.03;101042.16;105565;1296;67420;-89
2023/10/13 17:35:51;;;;;;;;;;;;;;;20.77;38.92;101043.81;105495;1299;67309;-88
2023/10/13 17:38:18;;;;;;;;;;;;;;;20.77;38.88;101043.42;105608;1298;66952;-89
2023/10/13 17:40:43;;;;;;;;;;;;;;;20.77;38.96;101047.82;105593;1299;67011;-89
2023/10/13 17:43:09;;;;;;;;;;;;;;;20.77;38.89;101046.60;105609;1300;66953;-89
2023/10/13 17:45:34;;;;;;;;;;;;;;;20.77;39.00;101046.64;105620;1296;67356;-88
2023/10/13 17:48:00;;;;;;;;;;;;;;;20.78;38.93;101049.05;105561;1296;82392;-88
2023/10/13 17:50:26;;;;;;;;;;;;;;;20.77;39.06;101045.93;105058;1299;470679;-88
2023/10/13 17:55:32;;;;;;;;;;;;;;;20.78;39.10;101050.09;105482;1300;67016;-89
2023/10/13 17:57:58;;;;;;;;;;;;;;;20.78;39.03;101053.40;105499;1299;66291;-89
2023/10/13 18:00:25;;;;;;;;;;;;;;;20.78;39.05;101054.02;105485;1300;67074;-89
2023/10/13 18:02:56;;;;;;;;;;;;;;;20.78;39.08;101055.15;105534;1295;66909;-88
2023/10/13 18:05:22;;;;;;;;;;;;;;;20.78;39.14;101053.77;105570;1298;66281;-88
2023/10/13 18:10:27;;;;;;;;;;;;;;;20.78;39.04;101056.21;105486;1299;74798;-88
2023/10/13 18:12:53;;;;;;;;;;;;;;;20.78;39.23;101053.04;105603;1297;67600;-89
2023/10/13 18:15:21;;;;;;;;;;;;;;;20.78;39.10;101054.11;105651;1298;67079;-89
2023/10/13 18:17:47;;;;;;;;;;;;;;;20.77;38.95;101049.56;105653;1297;67047;-89
2023/10/13 18:20:18;;;;;;;;;;;;;;;20.77;39.18;101049.81;105677;1300;66855;-89
2023/10/13 18:25:29;;;;;;;;;;;;;;;20.77;39.16;101046.59;105496;1299;82384;-89
2023/10/13 18:27:54;;;;;;;;;;;;;;;20.77;39.24;101049.91;105606;1298;72530;-88
2023/10/13 18:30:21;;;;;;;;;;;;;;;20.77;39.27;101052.16;105676;1299;66592;-88
2023/10/13 18:32:54;;;;;;;;;;;;;;;20.77;39.23;101053.29;105523;1299;67081;-88
2023/10/13 18:35:21;;;;;;;;;;;;;;;20.77;39.19;101052.97;105529;1300;74244;-89
2023/10/13 18:40:21;;;;;;;;;;;;;;;20.77;39.01;101048.84;105597;1299;73472;-89
2023/10/13 18:42:50;;;;;;;;;;;;;;;20.77;39.10;101052.89;105670;1300;67220;-88
2023/10/13 18:45:22;;;;;;;;;;;;;;;20.77;39.19;101056.20;105636;1299;66387;-89
2023/10/13 18:47:52;;;;;;;;;;;;;;;20.77;39.15;101060.13;105571;1296;75439;-88
2023/10/13 18:50:19;;;;;;;;;;;;;;;20.76;39.22;101058.84;105626;1293;82189;-89
2023/10/13 18:52:52;;;;;;;;;;;;;;;20.76;39.23;101060.95;105605;1291;71426;31
2023/10/13 18:55:18;;;;;;;;;;;;;;;20.76;39.21;101062.23;105521;1300;67030;-89
2023/10/13 18:57:44;;;;;;;;;;;;;;;20.76;39.24;101063.45;105473;1299;67034;-89
2023/10/13 19:00:14;;;;;;;;;;;;;;;20.76;39.40;101061.45;105518;1296;66585;-89
2023/10/13 19:02:43;;;;;;;;;;;;;;;20.76;39.15;101061.53;105565;1299;82974;-89
2023/10/13 19:05:09;;;;;;;;;;;;;;;20.76;39.24;101066.91;105459;1300;72299;-88
2023/10/13 19:13:16;;;;;;;;;;;;;;;20.75;39.36;101059.95;105412;1302;75208;-88
2023/10/13 19:15:42;;;;;;;;;;;;;;;20.75;39.30;101057.33;105633;1299;67335;-89
2023/10/13 19:18:08;;;;;;;;;;;;;;;20.74;39.32;101063.61;105513;1299;67345;-89
2023/10/13 19:20:35;;;;;;;;;;;;;;;20.74;39.46;101065.95;105620;1300;67093;-89
2023/10/13 19:23:03;;;;;;;;;;;;;;;20.74;39.35;101066.73;105652;1294;66393;-88
2023/10/13 19:25:46;;;;;;;;;;;;;;;20.74;39.39;101075.98;105640;1299;66775;-88
2023/10/13 19:28:13;;;;;;;;;;;;;;;20.74;39.25;101077.52;105557;1299;82130;-88
2023/10/13 19:30:41;;;;;;;;;;;;;;;20.74;39.20;101076.91;105621;1299;72304;-88
2023/10/13 19:33:07;;;;;;;;;;;;;;;20.74;39.39;101076.09;105627;1296;68201;-88
2023/10/13 19:35:40;;;;;;;;;;;;;;;20.73;39.58;101071.52;105666;1296;67274;-88
2023/10/13 19:38:05;;;;;;;;;;;;;;;20.73;39.46;101069.27;105652;1296;74473;-88
2023/10/13 19:43:12;;;;;;;;;;;;;;;20.73;39.30;101072.34;105434;1300;73465;-88
2023/10/13 19:45:38;;;;;;;;;;;;;;;20.73;39.44;101074.13;105484;1300;66933;-88
2023/10/13 19:48:09;;;;;;;;;;;;;;;20.73;39.52;101068.60;105515;1300;67127;-88
2023/10/13 19:50:36;;;;;;;;;;;;;;;20.73;39.40;101072.13;105529;1300;73741;-88
2023/10/13 19:53:04;;;;;;;;;;;;;;;20.73;39.55;101067.23;105537;1300;82176;-89
2023/10/13 19:55:42;;;;;;;;;;;;;;;20.72;39.32;101067.73;105526;1299;73529;-92
2023/10/13 19:58:14;;;;;;;;;;;;;;;20.72;39.25;101065.48;105400;1300;66869;-88
2023/10/13 20:00:40;;;;;;;;;;;;;;;20.72;39.45;101064.46;105563;1300;66304;-88
2023/10/13 20:03:09;;;;;;;;;;;;;;;20.72;39.48;101061.73;105532;1299;68192;-88
2023/10/13 20:05:37;;;;;;;;;;;;;;;20.72;39.45;101059.90;105439;1300;82997;-88
2023/10/13 20:08:06;;;;;;;;;;;;;;;20.71;39.32;101061.59;105501;1299;73491;-89
2023/10/13 20:10:35;;;;;;;;;;;;;;;20.71;39.37;101059.59;105519;1300;66954;-91
2023/10/13 20:13:05;;;;;;;;;;;;;;;20.72;39.44;101062.87;105379;1302;67757;-88
2023/10/13 20:15:31;;;;;;;;;;;;;;;20.71;39.30;101065.73;105403;1302;74362;-88
2023/10/13 20:17:57;;;;;;;;;;;;;;;20.71;39.30;101068.45;105410;1296;66325;-88
2023/10/13 20:20:27;;;;;;;;;;;;;;;20.71;39.36;101067.71;105534;1300;66991;-89
2023/10/13 20:22:56;;;;;;;;;;;;;;;20.71;39.46;101068.68;105516;1300;67773;-89
2023/10/13 20:28:00;;;;;;;;;;;;;;;20.71;39.46;101072.93;105485;1300;75481;-89
2023/10/13 20:30:26;;;;;;;;;;;;;;;20.71;39.40;101079.08;105576;1300;82043;-88
2023/10/13 20:32:51;;;;;;;;;;;;;;;20.71;39.49;101078.86;105472;1298;67054;-88
2023/10/13 20:35:23;;;;;;;;;;;;;;;20.70;39.62;101077.69;105520;1297;66434;-88
2023/10/13 20:37:49;;;;;;;;;;;;;;;20.71;39.48;101079.02;105436;1300;66292;-89
2023/10/13 20:42:49;;;;;;;;;;;;;;;20.70;39.38;101085.71;105508;1299;81244;-88
2023/10/13 20:45:21;;;;;;;;;;;;;;;20.70;39.47;101088.23;105571;1297;71380;-88
2023/10/13 20:47:47;;;;;;;;;;;;;;;20.70;39.62;101082.70;105580;1300;67193;-88
2023/10/13 20:50:13;;;;;;;;;;;;;;;20.69;39.41;101079.98;105461;1300;67890;-88
2023/10/13 20:52:39;;;;;;;;;;;;;;;20.69;39.56;101076.14;105651;1298;67813;-89
2023/10/13 20:55:04;;;;;;;;;;;;;;;20.69;39.48;101075.18;105573;1300;66961;-88
2023/10/13 20:57:31;;;;;;;;;;;;;;;20.69;39.54;101077.16;105600;1295;68144;-88
2023/10/13 20:59:58;;;;;;;;;;;;;;;20.69;39.46;101076.51;105534;1298;66288;-88
2023/10/13 21:02:24;;;;;;;;;;;;;;;20.69;39.48;101071.55;105515;1299;67400;-88
2023/10/13 21:04:50;;;;;;;;;;;;;;;20.69;39.43;101074.20;105536;1299;66357;-88
2023/10/13 21:07:26;;;;;;;;;;;;;;;20.69;39.55;101070.11;105502;1300;66397;-89
2023/10/13 21:09:55;;;;;;;;;;;;;;;20.69;39.60;101072.92;105479;1299;72570;-89
2023/10/13 21:12:20;;;;;;;;;;;;;;;20.69;39.55;101070.52;105513;1300;68398;-89
2023/10/13 21:14:46;;;;;;;;;;;;;;;20.69;39.74;101068.93;105539;1300;67254;-89
2023/10/13 21:17:12;;;;;;;;;;;;;;;20.68;39.64;101066.93;105517;1300;67025;-89
2023/10/13 21:19:39;;;;;;;;;;;;;;;20.69;39.51;101071.48;105435;1300;66258;-89
2023/10/13 21:24:45;;;;;;;;;;;;;;;20.68;39.72;101064.63;105482;1300;68187;-89
2023/10/13 21:27:11;;;;;;;;;;;;;;;20.68;39.59;101058.45;105559;1294;67345;-87
2023/10/13 21:29:37;;;;;;;;;;;;;;;20.68;39.51;101051.70;105573;1300;66343;-89